Time;durP1;ratioP1;P1;durP2;ratioP2;P2;SDS_P1;SDS_P2;PMS_P1;PMS_P2;Temp;Humidity;BMP_temperature;BMP_pressure;BME280_temperature;BME280_humidity;BME280_pressure;Samples;Min_cycle;Max_cycle;Signal;HPM_P1;HPM_P2
2023/03/09 00:01:29;;;;;;;;;;;;;;;14.17;43.75;98173.41;5018442;28;20391;-78
2023/03/09 00:03:54;;;;;;;;;;;;;;;14.17;43.81;98170.78;5035082;28;19924;-78
2023/03/09 00:06:19;;;;;;;;;;;;;;;14.16;43.98;98163.06;5034347;28;19925;-79
2023/03/09 00:08:46;;;;;;;;;;;;;;;14.14;44.07;98160.59;5034411;28;19921;-79
2023/03/09 00:11:11;;;;;;;;;;;;;;;14.10;44.13;98159.25;5018529;28;19931;-78
2023/03/09 00:13:36;;;;;;;;;;;;;;;14.09;44.11;98162.88;5034807;28;19920;-78
2023/03/09 00:16:12;;;;;;;;;;;;;;;14.06;44.02;98156.13;5035130;28;19924;-78
2023/03/09 00:18:37;;;;;;;;;;;;;;;14.04;44.28;98149.38;5034637;28;19924;-79
2023/03/09 00:21:03;;;;;;;;;;;;;;;14.01;44.34;98150.50;5034732;28;19917;-80
2023/03/09 00:23:28;;;;;;;;;;;;;;;13.97;44.27;98146.53;5017507;28;19917;-78
2023/03/09 00:25:54;;;;;;;;;;;;;;;13.94;44.37;98147.66;5034689;28;20364;-79
2023/03/09 00:28:19;;;;;;;;;;;;;;;13.89;44.66;98142.06;5052136;28;20292;-79
2023/03/09 00:30:44;;;;;;;;;;;;;;;13.88;44.56;98142.19;5034772;28;19917;-79
2023/03/09 00:33:09;;;;;;;;;;;;;;;13.84;44.76;98136.44;5018108;28;19932;-79
2023/03/09 00:35:35;;;;;;;;;;;;;;;13.81;44.87;98136.75;5052348;28;19917;-79
2023/03/09 00:38:00;;;;;;;;;;;;;;;13.79;45.03;98136.09;5034396;28;20459;-79
2023/03/09 00:40:26;;;;;;;;;;;;;;;13.75;45.05;98129.47;5034576;28;19925;-79
2023/03/09 00:42:51;;;;;;;;;;;;;;;13.74;45.09;98135.69;5052621;28;20339;-79
2023/03/09 00:45:17;;;;;;;;;;;;;;;13.71;45.24;98133.38;5017262;28;19921;-79
2023/03/09 00:47:42;;;;;;;;;;;;;;;13.69;45.52;98130.09;5034789;28;19916;-80
2023/03/09 00:50:09;;;;;;;;;;;;;;;13.67;45.25;98129.44;5034600;28;19970;-79
2023/03/09 00:52:35;;;;;;;;;;;;;;;13.65;45.55;98128.75;5017919;28;20419;-79
2023/03/09 00:55:00;;;;;;;;;;;;;;;13.63;45.56;98120.19;5034146;28;19916;-78
2023/03/09 00:57:25;;;;;;;;;;;;;;;13.61;45.49;98119.53;5017923;28;20007;-78
2023/03/09 00:59:51;;;;;;;;;;;;;;;13.57;45.92;98114.59;5017858;28;20049;-78
2023/03/09 01:02:17;;;;;;;;;;;;;;;13.55;46.05;98106.06;5034601;28;19983;-78
2023/03/09 01:04:43;;;;;;;;;;;;;;;13.53;45.84;98102.75;5034503;28;20379;-78
2023/03/09 01:07:08;;;;;;;;;;;;;;;13.50;45.81;98103.06;5017642;28;19917;-78
2023/03/09 01:09:33;;;;;;;;;;;;;;;13.50;46.16;98102.25;5017856;28;19917;-78
2023/03/09 01:11:59;;;;;;;;;;;;;;;13.49;46.39;98103.19;5020556;28;19999;-78
2023/03/09 01:14:24;;;;;;;;;;;;;;;13.46;46.47;98104.34;5038001;28;19917;-78
2023/03/09 01:16:49;;;;;;;;;;;;;;;13.43;46.49;98096.78;5037943;28;20444;-78
2023/03/09 01:19:14;;;;;;;;;;;;;;;13.41;46.49;98101.34;5037926;28;19924;-78
2023/03/09 01:21:40;;;;;;;;;;;;;;;13.39;46.59;98101.50;5021653;28;20383;-78
2023/03/09 01:24:05;;;;;;;;;;;;;;;13.38;46.63;98093.78;5037640;28;19939;-78
2023/03/09 01:26:30;;;;;;;;;;;;;;;13.35;46.76;98094.09;5038106;28;19967;-78
2023/03/09 01:28:56;;;;;;;;;;;;;;;13.33;46.97;98103.88;5037996;28;19967;-78
2023/03/09 01:31:21;;;;;;;;;;;;;;;13.30;46.67;98104.16;5037755;28;19953;-78
2023/03/09 01:33:47;;;;;;;;;;;;;;;13.28;47.01;98104.31;5037734;28;19967;-78
2023/03/09 01:36:13;;;;;;;;;;;;;;;13.24;47.13;98097.72;5055572;28;19916;-78
2023/03/09 01:38:38;;;;;;;;;;;;;;;13.23;47.10;98097.88;5037153;28;20398;-78
2023/03/09 01:41:04;;;;;;;;;;;;;;;13.19;47.08;98092.94;5037479;28;19924;-78
2023/03/09 01:43:39;;;;;;;;;;;;;;;13.18;47.05;98100.94;5037861;28;19916;-78
2023/03/09 01:46:30;;;;;;;;;;;;;;;13.16;47.17;98095.84;5055277;28;19917;-78
2023/03/09 01:49:10;;;;;;;;;;;;;;;13.14;47.49;98097.81;5006772;28;20342;-78
2023/03/09 01:51:44;;;;;;;;;;;;;;;13.11;47.14;98092.84;5021500;28;19916;-78
2023/03/09 01:54:11;;;;;;;;;;;;;;;13.09;47.32;98104.44;5020696;28;20007;-78
2023/03/09 01:56:36;;;;;;;;;;;;;;;13.07;47.31;98104.59;5037111;28;19975;-78
2023/03/09 01:59:01;;;;;;;;;;;;;;;13.05;47.71;98105.75;5037087;28;19956;-78
2023/03/09 02:01:27;;;;;;;;;;;;;;;13.04;47.63;98102.28;5037164;28;19921;-78
2023/03/09 02:03:53;;;;;;;;;;;;;;;13.03;47.67;98100.66;5036627;28;20439;-78
2023/03/09 02:06:19;;;;;;;;;;;;;;;13.02;47.49;98096.38;5020513;28;20030;-78
2023/03/09 02:08:48;;;;;;;;;;;;;;;13.01;47.46;98097.31;5037078;28;19916;-78
2023/03/09 02:11:14;;;;;;;;;;;;;;;12.99;47.56;98099.28;5037176;28;19917;-78
2023/03/09 02:13:40;;;;;;;;;;;;;;;12.97;47.41;98096.81;5037130;28;19923;-79
2023/03/09 02:16:06;;;;;;;;;;;;;;;12.95;47.47;98095.28;5020519;28;19924;-79
2023/03/09 02:18:32;;;;;;;;;;;;;;;12.95;47.60;98103.16;5036131;28;19917;-78
2023/03/09 02:21:00;;;;;;;;;;;;;;;12.92;47.82;98098.22;5036873;28;19920;-78
2023/03/09 02:23:38;;;;;;;;;;;;;;;12.93;47.88;98105.09;5020547;28;19917;-78
2023/03/09 02:26:03;;;;;;;;;;;;;;;12.91;47.62;98113.13;5054986;28;19964;-78
2023/03/09 02:28:28;;;;;;;;;;;;;;;12.89;47.71;98104.59;5054486;28;19956;-79
2023/03/09 02:30:54;;;;;;;;;;;;;;;12.88;47.76;98099.50;5040704;28;19920;-78
2023/03/09 02:33:26;;;;;;;;;;;;;;;12.87;47.72;98100.44;5024711;28;20006;-79
2023/03/09 02:35:54;;;;;;;;;;;;;;;12.87;48.19;98105.69;5021815;28;20437;-79
2023/03/09 02:38:19;;;;;;;;;;;;;;;12.84;48.01;98110.25;5054570;28;19917;-79
2023/03/09 02:40:44;;;;;;;;;;;;;;;12.84;47.97;98104.22;5036810;28;19931;-79
2023/03/09 02:43:10;;;;;;;;;;;;;;;12.83;48.00;98097.31;5020221;28;20354;-79
2023/03/09 02:45:35;;;;;;;;;;;;;;;12.82;48.00;98093.88;5036788;28;20020;-79
2023/03/09 02:48:00;;;;;;;;;;;;;;;12.81;48.21;98100.06;5036723;28;19975;-79
2023/03/09 02:50:26;;;;;;;;;;;;;;;12.80;48.17;98097.59;5036572;28;20015;-79
2023/03/09 02:52:51;;;;;;;;;;;;;;;12.78;48.09;98097.75;5036737;28;19917;-79
2023/03/09 02:55:16;;;;;;;;;;;;;;;12.79;48.11;98101.19;5054121;28;19952;-79
2023/03/09 02:57:42;;;;;;;;;;;;;;;12.77;48.09;98103.94;5036800;28;19925;-79
2023/03/09 03:00:10;;;;;;;;;;;;;;;12.76;48.22;98099.69;5020225;28;19917;-79
2023/03/09 03:02:36;;;;;;;;;;;;;;;12.76;48.09;98107.56;5036787;28;19948;-79
2023/03/09 03:05:01;;;;;;;;;;;;;;;12.75;48.11;98102.47;5036110;28;20411;-78
2023/03/09 03:07:26;;;;;;;;;;;;;;;12.73;48.24;98104.38;5053597;28;19999;-79
2023/03/09 03:09:52;;;;;;;;;;;;;;;12.72;48.44;98108.81;5036151;28;20405;-79
2023/03/09 03:12:18;;;;;;;;;;;;;;;12.72;48.24;98098.34;5035687;28;19924;-79
2023/03/09 03:14:43;;;;;;;;;;;;;;;12.71;48.25;98104.53;5054310;28;19967;-79
2023/03/09 03:17:09;;;;;;;;;;;;;;;12.72;48.31;98105.38;5036085;28;20385;-80
2023/03/09 03:19:34;;;;;;;;;;;;;;;12.72;48.33;98114.03;5036315;28;19917;-79
2023/03/09 03:21:59;;;;;;;;;;;;;;;12.71;48.26;98116.81;5019365;28;19924;-79
2023/03/09 03:24:25;;;;;;;;;;;;;;;12.71;48.28;98119.44;5018745;28;20007;-80
2023/03/09 03:26:50;;;;;;;;;;;;;;;12.70;48.39;98118.63;5053979;28;19979;-80
2023/03/09 03:29:15;;;;;;;;;;;;;;;12.68;48.36;98115.28;5019147;28;19916;-80
2023/03/09 03:31:40;;;;;;;;;;;;;;;12.67;48.32;98111.88;5035924;28;20380;-80
2023/03/09 03:34:06;;;;;;;;;;;;;;;12.66;48.36;98099.72;5035429;28;19924;-81
2023/03/09 03:36:31;;;;;;;;;;;;;;;12.67;48.73;98092.72;5035916;28;19917;-80
2023/03/09 03:38:56;;;;;;;;;;;;;;;12.66;48.74;98104.97;5018789;28;19943;-80
2023/03/09 03:41:22;;;;;;;;;;;;;;;12.65;48.72;98108.56;5053166;28;20035;-80
2023/03/09 03:43:47;;;;;;;;;;;;;;;12.64;48.83;98108.72;5035366;28;19916;-81
2023/03/09 03:46:12;;;;;;;;;;;;;;;12.63;48.71;98094.81;5035375;28;19923;-80
2023/03/09 03:48:37;;;;;;;;;;;;;;;12.63;48.62;98096.59;5052859;28;20295;-80
2023/03/09 03:51:05;;;;;;;;;;;;;;;12.62;48.59;98103.63;5018516;28;19924;-80
2023/03/09 03:53:30;;;;;;;;;;;;;;;12.62;48.75;98098.38;5035180;28;20002;-80
2023/03/09 03:55:56;;;;;;;;;;;;;;;12.61;48.90;98093.28;5052755;28;20391;-80
2023/03/09 03:58:21;;;;;;;;;;;;;;;12.60;48.72;98097.72;5015634;28;19932;-81
2023/03/09 04:00:47;;;;;;;;;;;;;;;12.58;48.73;98097.03;5014930;28;19923;-80
2023/03/09 04:03:12;;;;;;;;;;;;;;;12.57;49.06;98089.31;5014552;28;19917;-80
2023/03/09 04:05:37;;;;;;;;;;;;;;;12.55;49.05;98093.88;5015187;28;19918;-80
2023/03/09 04:08:03;;;;;;;;;;;;;;;12.54;48.79;98092.22;5014983;28;20364;-80
2023/03/09 04:10:28;;;;;;;;;;;;;;;12.53;49.09;98098.44;5015105;28;19918;-80
2023/03/09 04:12:54;;;;;;;;;;;;;;;12.51;48.89;98106.44;5015858;28;19921;-80
2023/03/09 04:15:19;;;;;;;;;;;;;;;12.51;48.87;98095.13;5015179;28;20317;-80
2023/03/09 04:17:47;;;;;;;;;;;;;;;12.49;49.29;98103.97;5032635;28;19917;-79
2023/03/09 04:20:12;;;;;;;;;;;;;;;12.48;49.32;98099.69;5014934;28;19921;-80
2023/03/09 04:22:38;;;;;;;;;;;;;;;12.48;49.34;98104.09;4998338;28;19931;-81
2023/03/09 04:25:03;;;;;;;;;;;;;;;12.47;49.22;98105.06;4998285;28;20003;-79
2023/03/09 04:27:28;;;;;;;;;;;;;;;12.46;48.95;98106.88;5015397;28;19924;-80
2023/03/09 04:29:54;;;;;;;;;;;;;;;12.46;49.19;98109.50;4998376;28;19964;-79
2023/03/09 04:32:19;;;;;;;;;;;;;;;12.45;48.95;98112.25;5014947;28;19917;-81
2023/03/09 04:34:44;;;;;;;;;;;;;;;12.44;49.36;98103.56;4998402;28;19917;-82
2023/03/09 04:37:10;;;;;;;;;;;;;;;12.44;49.28;98100.13;5032632;28;19917;-82
2023/03/09 04:39:36;;;;;;;;;;;;;;;12.58;55.99;98111.91;5032830;28;19917;-84
2023/03/09 04:42:01;;;;;;;;;;;;;;;12.58;54.07;98111.91;5012982;28;20427;-87
2023/03/09 04:44:27;;;;;;;;;;;;;;;12.58;52.79;98119.78;5032957;28;20018;-92
2023/03/09 04:46:52;;;;;;;;;;;;;;;12.83;61.78;98119.09;5019543;28;19932;-90
2023/03/09 04:49:17;;;;;;;;;;;;;;;12.89;59.15;98111.59;5023972;28;19924;-91
2023/03/09 04:51:43;;;;;;;;;;;;;;;12.87;56.55;98108.31;5019620;28;19923;-87
2023/03/09 04:54:08;;;;;;;;;;;;;;;12.84;55.32;98099.78;5002570;28;19921;-91
2023/03/09 04:56:33;;;;;;;;;;;;;;;12.81;54.67;98101.88;5018756;28;20369;-80
2023/03/09 04:58:59;;;;;;;;;;;;;;;12.78;53.80;98103.00;5014147;28;19960;-87
2023/03/09 05:01:26;;;;;;;;;;;;;;;12.76;53.19;98098.84;5055589;28;19923;-89
2023/03/09 05:03:51;;;;;;;;;;;;;;;12.74;52.75;98104.25;5038530;28;19917;-83
2023/03/09 05:06:23;;;;;;;;;;;;;;;12.73;52.30;98101.75;5057043;28;19924;-92
2023/03/09 05:08:48;;;;;;;;;;;;;;;12.72;51.87;98108.00;5056087;28;19924;-90
2023/03/09 05:11:14;;;;;;;;;;;;;;;12.70;51.51;98102.06;5038841;28;20073;-84
2023/03/09 05:13:40;;;;;;;;;;;;;;;12.70;51.63;98112.53;5055465;28;20391;-87
2023/03/09 05:16:09;;;;;;;;;;;;;;;12.71;51.00;98108.94;5054527;28;19917;-87
2023/03/09 05:18:34;;;;;;;;;;;;;;;12.70;51.15;98117.78;5055187;28;19924;-83
2023/03/09 05:21:10;;;;;;;;;;;;;;;12.72;50.56;98108.00;5054181;28;19917;-83
2023/03/09 05:23:35;;;;;;;;;;;;;;;12.74;50.32;98104.25;5055470;28;19975;-84
2023/03/09 05:26:01;;;;;;;;;;;;;;;12.79;50.35;98106.41;5054376;28;19920;-84
2023/03/09 05:28:27;;;;;;;;;;;;;;;12.82;50.21;98114.00;5054456;28;19924;-85
2023/03/09 05:30:52;;;;;;;;;;;;;;;12.88;49.80;98116.03;5042378;28;20327;-85
2023/03/09 05:33:17;;;;;;;;;;;;;;;12.96;49.60;98117.91;5045300;28;20359;-84
2023/03/09 05:35:43;;;;;;;;;;;;;;;13.03;49.38;98118.97;5042486;28;19925;-85
2023/03/09 05:38:08;;;;;;;;;;;;;;;13.14;48.78;98112.69;5056024;28;19917;-86
2023/03/09 05:40:34;;;;;;;;;;;;;;;13.27;48.88;98122.81;5055490;28;19928;-87
2023/03/09 05:42:59;;;;;;;;;;;;;;;13.37;48.40;98126.22;5037694;28;19917;-86
2023/03/09 05:45:24;;;;;;;;;;;;;;;13.46;48.16;98120.06;5037537;28;20307;-87
2023/03/09 05:47:50;;;;;;;;;;;;;;;13.56;48.01;98118.19;5054047;28;20387;-86
2023/03/09 05:50:15;;;;;;;;;;;;;;;13.68;47.48;98121.41;5054256;28;20371;-86
2023/03/09 05:52:41;;;;;;;;;;;;;;;13.79;47.30;98112.47;5037231;28;20381;-87
2023/03/09 05:55:06;;;;;;;;;;;;;;;13.89;47.25;98113.19;5037592;28;19944;-86
2023/03/09 05:57:31;;;;;;;;;;;;;;;14.06;46.71;98113.31;5031920;28;19927;-85
2023/03/09 05:59:57;;;;;;;;;;;;;;;14.53;45.98;98120.78;5035156;28;19925;-89
2023/03/09 06:02:22;;;;;;;;;;;;;;;15.13;44.90;98119.03;5026773;28;19925;-86
2023/03/09 06:04:51;;;;;;;;;;;;;;;15.71;43.84;98128.63;5024395;28;19917;-88
2023/03/09 06:07:16;;;;;;;;;;;;;;;16.78;42.04;98132.88;5024670;28;19917;-88
2023/03/09 06:09:41;;;;;;;;;;;;;;;17.61;40.84;98133.22;5026465;28;19917;-89
2023/03/09 06:12:07;;;;;;;;;;;;;;;18.45;39.07;98133.13;5024674;28;19921;-89
2023/03/09 06:14:32;;;;;;;;;;;;;;;19.10;37.88;98131.53;5026947;28;19931;-91
2023/03/09 06:17:01;;;;;;;;;;;;;;;19.96;36.23;98136.03;5026581;28;20295;-88
2023/03/09 06:19:26;;;;;;;;;;;;;;;20.75;34.73;98134.91;5025691;28;19923;-89
2023/03/09 06:21:51;;;;;;;;;;;;;;;21.45;33.27;98132.06;5028589;28;19956;-87
2023/03/09 06:24:17;;;;;;;;;;;;;;;22.12;32.17;98142.72;5022631;28;19955;-80
2023/03/09 06:26:43;;;;;;;;;;;;;;;22.76;31.17;98127.09;5036866;28;19918;-80
2023/03/09 06:29:08;;;;;;;;;;;;;;;23.41;29.85;98139.50;5053627;28;20039;-79
2023/03/09 06:31:33;;;;;;;;;;;;;;;23.98;28.73;98129.66;5036904;28;19916;-81
2023/03/09 06:33:58;;;;;;;;;;;;;;;24.55;28.19;98136.69;5040453;28;19923;-84
2023/03/09 06:36:24;;;;;;;;;;;;;;;24.86;33.12;98138.44;5043541;28;19916;-88
2023/03/09 06:38:49;;;;;;;;;;;;;;;25.18;33.54;98140.09;5021996;28;19917;-87
2023/03/09 06:41:15;;;;;;;;;;;;;;;25.43;33.78;98148.78;5020829;28;19925;-86
2023/03/09 06:43:41;;;;;;;;;;;;;;;25.71;32.60;98138.50;5037715;28;19917;-85
2023/03/09 06:46:07;;;;;;;;;;;;;;;26.02;31.36;98137.41;5023745;28;19984;-89
2023/03/09 06:48:32;;;;;;;;;;;;;;;26.29;30.92;98145.78;5020184;28;19917;-82
2023/03/09 06:50:58;;;;;;;;;;;;;;;26.72;28.75;98151.81;5054397;28;20007;-81
2023/03/09 06:53:23;;;;;;;;;;;;;;;27.21;26.75;98144.19;5018443;28;20383;-81
2023/03/09 06:55:48;;;;;;;;;;;;;;;27.59;25.54;98142.75;5054285;28;19968;-81
2023/03/09 06:58:14;;;;;;;;;;;;;;;28.03;24.19;98139.47;5020125;28;19916;-81
2023/03/09 07:00:40;;;;;;;;;;;;;;;28.49;23.34;98133.94;5021073;28;19943;-81
2023/03/09 07:03:06;;;;;;;;;;;;;;;28.85;22.85;98134.44;5038550;28;20015;-81
2023/03/09 07:05:31;;;;;;;;;;;;;;;29.30;22.01;98129.81;5037599;28;19967;-83
2023/03/09 07:07:56;;;;;;;;;;;;;;;29.59;21.46;98128.50;5036027;28;19932;-83
2023/03/09 07:10:22;;;;;;;;;;;;;;;29.95;21.39;98126.13;5036294;28;20418;-83
2023/03/09 07:12:48;;;;;;;;;;;;;;;30.22;20.36;98127.06;5036739;28;20410;-83
2023/03/09 07:15:13;;;;;;;;;;;;;;;30.37;19.65;98124.47;5019848;28;19924;-82
2023/03/09 07:17:39;;;;;;;;;;;;;;;30.55;19.73;98115.16;5054261;28;19956;-82
2023/03/09 07:20:04;;;;;;;;;;;;;;;30.73;19.47;98103.13;5034605;28;19917;-84
2023/03/09 07:22:31;;;;;;;;;;;;;;;30.87;19.01;98102.63;5018643;28;19966;-81
2023/03/09 07:24:56;;;;;;;;;;;;;;;31.04;22.06;98111.31;5035042;28;19924;-86
2023/03/09 07:27:22;;;;;;;;;;;;;;;30.97;20.79;98116.16;5019523;28;19921;-84
2023/03/09 07:29:47;;;;;;;;;;;;;;;30.84;21.89;98114.75;5055065;28;19943;-85
2023/03/09 07:32:13;;;;;;;;;;;;;;;30.76;22.19;98110.69;5035985;28;19955;-83
2023/03/09 07:34:38;;;;;;;;;;;;;;;30.72;22.72;98101.50;5054297;28;20371;-83
2023/03/09 07:37:04;;;;;;;;;;;;;;;30.74;22.91;98103.94;5037268;28;19943;-80
2023/03/09 07:39:33;;;;;;;;;;;;;;;30.67;22.89;98099.59;5052363;28;20261;-80
2023/03/09 07:41:58;;;;;;;;;;;;;;;30.73;22.86;98095.03;5035577;28;20366;-82
2023/03/09 07:44:24;;;;;;;;;;;;;;;30.69;22.43;98093.94;5035973;28;20446;-82
2023/03/09 07:46:49;;;;;;;;;;;;;;;30.47;21.90;98105.72;5041890;28;19972;-79
2023/03/09 07:49:15;;;;;;;;;;;;;;;30.46;21.73;98100.59;5037391;28;19917;-82
2023/03/09 07:51:40;;;;;;;;;;;;;;;30.47;21.33;98100.34;5021349;28;19917;-82
2023/03/09 07:54:07;;;;;;;;;;;;;;;30.40;21.56;98093.56;5054462;28;19924;-85
2023/03/09 07:56:33;;;;;;;;;;;;;;;30.48;21.44;98085.78;5053813;28;19920;-85
2023/03/09 07:58:58;;;;;;;;;;;;;;;30.57;21.28;98087.97;5042493;28;19917;-87
2023/03/09 08:01:24;;;;;;;;;;;;;;;30.40;22.27;98086.28;5059515;28;19924;-81
2023/03/09 08:03:49;;;;;;;;;;;;;;;29.22;21.17;98088.91;5016255;28;19995;-81
2023/03/09 08:06:16;;;;;;;;;;;;;;;28.58;23.30;98080.69;5053756;28;19940;-86
2023/03/09 08:08:42;;;;;;;;;;;;;;;28.41;23.22;98086.88;5037878;28;19921;-84
2023/03/09 08:11:07;;;;;;;;;;;;;;;28.36;23.18;98080.63;5045306;28;19928;-86
2023/03/09 08:13:33;;;;;;;;;;;;;;;28.14;23.30;98082.22;5045801;28;19923;-89
2023/03/09 08:15:59;;;;;;;;;;;;;;;27.95;23.29;98075.53;5032501;28;19939;-87
2023/03/09 08:18:24;;;;;;;;;;;;;;;27.77;23.09;98081.94;5024609;28;19952;-87
2023/03/09 08:20:50;;;;;;;;;;;;;;;27.67;23.24;98084.44;5045402;28;19917;-86
2023/03/09 08:23:15;;;;;;;;;;;;;;;27.45;23.34;98079.78;5065162;28;19916;-90
2023/03/09 08:25:41;;;;;;;;;;;;;;;27.33;23.40;98082.56;5059044;28;19921;-83
2023/03/09 08:28:06;;;;;;;;;;;;;;;27.18;24.03;98079.56;5041151;28;19970;-88
2023/03/09 08:30:31;;;;;;;;;;;;;;;27.03;24.17;98078.25;5056480;28;19917;-84
2023/03/09 08:32:57;;;;;;;;;;;;;;;26.82;24.16;98077.06;5054818;28;20354;-84
2023/03/09 08:35:23;;;;;;;;;;;;;;;26.60;24.61;98078.72;5052861;28;19970;-85
2023/03/09 08:37:48;;;;;;;;;;;;;;;26.37;24.78;98077.72;5036566;28;19956;-85
2023/03/09 08:40:13;;;;;;;;;;;;;;;26.16;25.09;98073.81;5036731;28;19917;-84
2023/03/09 08:42:39;;;;;;;;;;;;;;;25.93;25.30;98074.59;5035911;28;19931;-85
2023/03/09 08:45:04;;;;;;;;;;;;;;;25.69;25.82;98074.59;5036073;28;19987;-84
2023/03/09 08:47:30;;;;;;;;;;;;;;;25.45;26.03;98081.78;5020620;28;19953;-84
2023/03/09 08:49:55;;;;;;;;;;;;;;;25.20;26.39;98081.91;5035999;28;19916;-86
2023/03/09 08:52:21;;;;;;;;;;;;;;;24.95;26.70;98082.84;5018974;28;20449;-83
2023/03/09 08:54:46;;;;;;;;;;;;;;;24.76;26.83;98086.59;5018621;28;19966;-86
2023/03/09 08:57:11;;;;;;;;;;;;;;;24.61;26.69;98087.00;5019602;28;20015;-84
2023/03/09 08:59:37;;;;;;;;;;;;;;;24.51;26.89;98084.81;5035805;28;20002;-84
2023/03/09 09:02:02;;;;;;;;;;;;;;;24.41;27.20;98073.84;5036054;28;19924;-85
2023/03/09 09:04:28;;;;;;;;;;;;;;;24.35;27.30;98081.72;5036252;28;19984;-85
2023/03/09 09:06:53;;;;;;;;;;;;;;;24.31;27.62;98085.06;5035569;28;19917;-83
2023/03/09 09:09:19;;;;;;;;;;;;;;;24.26;27.71;98088.38;5035311;28;19916;-83
2023/03/09 09:11:45;;;;;;;;;;;;;;;24.24;27.66;98084.28;5036550;28;19924;-84
2023/03/09 09:14:10;;;;;;;;;;;;;;;24.17;27.81;98077.19;5054196;28;19917;-83
2023/03/09 09:16:35;;;;;;;;;;;;;;;24.16;27.37;98078.22;5019658;28;19916;-84
2023/03/09 09:19:01;;;;;;;;;;;;;;;24.12;27.37;98082.34;5036570;28;19917;-83
2023/03/09 09:21:28;;;;;;;;;;;;;;;24.09;27.40;98077.47;5034474;28;20310;-82
2023/03/09 09:23:53;;;;;;;;;;;;;;;24.12;27.42;98077.03;5034995;28;19917;-82
2023/03/09 09:26:18;;;;;;;;;;;;;;;24.14;27.43;98069.63;5035210;28;20032;-82
2023/03/09 09:28:44;;;;;;;;;;;;;;;24.24;27.08;98070.97;5018281;28;19917;-79
2023/03/09 09:31:12;;;;;;;;;;;;;;;24.36;26.92;98074.53;5018258;28;19962;-81
2023/03/09 09:33:37;;;;;;;;;;;;;;;24.41;26.63;98072.00;5021591;28;19917;-82
2023/03/09 09:36:04;;;;;;;;;;;;;;;24.51;26.62;98068.81;5038253;28;19963;-80
2023/03/09 09:38:29;;;;;;;;;;;;;;;24.58;26.42;98061.56;5038300;28;19917;-82
2023/03/09 09:40:55;;;;;;;;;;;;;;;24.60;26.04;98056.03;5022210;28;19921;-83
2023/03/09 09:43:21;;;;;;;;;;;;;;;24.57;26.09;98059.94;5021902;28;20349;-82
2023/03/09 09:45:46;;;;;;;;;;;;;;;24.52;25.78;98052.56;5038983;28;19936;-81
2023/03/09 09:48:18;;;;;;;;;;;;;;;24.48;25.87;98051.41;5021930;28;20295;-82
2023/03/09 09:51:02;;;;;;;;;;;;;;;24.47;25.73;98054.28;5023950;28;20062;-84
2023/03/09 09:53:33;;;;;;;;;;;;;;;24.49;25.75;98042.34;5056437;28;20376;-82
2023/03/09 09:55:59;;;;;;;;;;;;;;;24.59;25.59;98038.38;5055648;28;19923;-82
2023/03/09 09:58:29;;;;;;;;;;;;;;;24.70;25.44;98037.59;5021173;28;20011;-83
2023/03/09 10:00:56;;;;;;;;;;;;;;;24.81;25.10;98039.53;5038063;28;19917;-81
2023/03/09 10:03:35;;;;;;;;;;;;;;;24.81;25.25;98036.03;5021545;28;19924;-80
2023/03/09 10:06:03;;;;;;;;;;;;;;;24.85;25.57;98035.34;5038881;28;19939;-82
2023/03/09 10:08:31;;;;;;;;;;;;;;;24.78;25.64;98031.13;5037818;28;19917;-82
2023/03/09 10:10:58;;;;;;;;;;;;;;;24.72;25.66;98033.69;5055324;28;19923;-84
2023/03/09 10:13:28;;;;;;;;;;;;;;;24.82;25.60;98037.66;5020832;28;19939;-82
2023/03/09 10:15:53;;;;;;;;;;;;;;;24.90;25.84;98034.69;5021244;28;19959;-82
2023/03/09 10:18:29;;;;;;;;;;;;;;;24.89;25.84;98023.19;5038038;28;19917;-83
2023/03/09 10:20:54;;;;;;;;;;;;;;;24.89;25.98;98019.69;5021071;28;19917;-82
2023/03/09 10:23:24;;;;;;;;;;;;;;;24.85;25.86;98013.19;5037433;28;19917;-82
2023/03/09 10:25:50;;;;;;;;;;;;;;;24.76;26.04;98012.69;5020933;28;19921;-81
2023/03/09 10:28:19;;;;;;;;;;;;;;;24.72;26.04;98011.53;5021069;28;19970;-82
2023/03/09 10:30:47;;;;;;;;;;;;;;;24.66;26.17;98005.22;5022275;28;19916;-81
2023/03/09 10:33:17;;;;;;;;;;;;;;;24.63;26.21;98007.53;5021620;28;19939;-82
2023/03/09 10:35:43;;;;;;;;;;;;;;;24.56;26.32;98004.94;5021489;28;19916;-82
2023/03/09 10:38:15;;;;;;;;;;;;;;;24.49;26.19;97997.00;5020669;28;19920;-85
2023/03/09 10:40:48;;;;;;;;;;;;;;;24.39;26.46;97992.19;5020475;28;20495;-82
2023/03/09 10:43:20;;;;;;;;;;;;;;;24.35;26.54;97988.38;5020784;28;20007;-82
2023/03/09 10:45:45;;;;;;;;;;;;;;;24.31;26.64;97989.84;5036739;28;19955;-82
2023/03/09 10:48:18;;;;;;;;;;;;;;;24.29;26.56;97983.94;5019836;28;19964;-82
2023/03/09 10:50:59;;;;;;;;;;;;;;;24.30;26.58;97984.72;5036253;28;20019;-82
2023/03/09 10:53:24;;;;;;;;;;;;;;;24.26;26.50;97976.38;5036747;28;20302;-80
2023/03/09 10:55:51;;;;;;;;;;;;;;;24.27;26.57;97966.50;5036294;28;19999;-82
2023/03/09 10:58:17;;;;;;;;;;;;;;;24.24;26.61;97962.44;5037265;28;19916;-84
2023/03/09 11:00:54;;;;;;;;;;;;;;;24.22;26.61;97958.38;5036845;28;19924;-82
2023/03/09 11:03:21;;;;;;;;;;;;;;;24.20;26.63;97951.41;5036788;28;20371;-82
2023/03/09 11:05:46;;;;;;;;;;;;;;;24.20;26.68;97953.28;5020234;28;19917;-81
2023/03/09 11:08:19;;;;;;;;;;;;;;;24.18;26.55;97950.81;5020290;28;19924;-83
2023/03/09 11:10:44;;;;;;;;;;;;;;;24.19;26.56;97947.13;5037556;28;20402;-81
2023/03/09 11:13:16;;;;;;;;;;;;;;;24.15;26.76;97940.63;5038587;28;19917;-82
2023/03/09 11:15:41;;;;;;;;;;;;;;;24.16;26.68;97933.41;5021610;28;20394;-81
2023/03/09 11:18:26;;;;;;;;;;;;;;;24.20;26.72;97930.06;5020733;28;19921;-82
2023/03/09 11:20:54;;;;;;;;;;;;;;;24.20;26.77;97921.28;5036992;28;19917;-81
2023/03/09 11:23:29;;;;;;;;;;;;;;;24.19;26.67;97919.63;5020625;28;19917;-84
2023/03/09 11:26:03;;;;;;;;;;;;;;;24.16;26.69;97920.91;5036885;28;20433;-82
2023/03/09 11:28:44;;;;;;;;;;;;;;;24.14;26.67;97914.97;5054004;28;19956;-82
2023/03/09 11:31:11;;;;;;;;;;;;;;;24.08;26.81;97907.06;5019995;28;20441;-82
2023/03/09 11:33:37;;;;;;;;;;;;;;;24.02;26.99;97904.28;5038669;28;19956;-83
2023/03/09 11:36:02;;;;;;;;;;;;;;;23.98;27.08;97899.63;5021735;28;19916;-83
2023/03/09 11:38:28;;;;;;;;;;;;;;;23.93;27.25;97892.28;5023551;28;19925;-83
2023/03/09 11:41:05;;;;;;;;;;;;;;;23.88;27.18;97886.81;5038632;28;20330;-83
2023/03/09 11:43:32;;;;;;;;;;;;;;;23.84;27.48;97881.09;5036703;28;19970;-82
2023/03/09 11:46:00;;;;;;;;;;;;;;;23.79;27.44;97875.59;5036606;28;19917;-82
2023/03/09 11:48:28;;;;;;;;;;;;;;;23.81;27.30;97867.38;5020063;28;20375;-83
2023/03/09 11:51:06;;;;;;;;;;;;;;;23.83;27.33;97866.16;5037159;28;19917;-83
2023/03/09 11:53:36;;;;;;;;;;;;;;;23.87;26.86;97858.53;5037130;28;19955;-82
2023/03/09 11:56:09;;;;;;;;;;;;;;;23.88;26.90;97852.16;5035716;28;19917;-81
2023/03/09 11:58:38;;;;;;;;;;;;;;;23.86;26.99;97853.44;5020255;28;20379;-83
2023/03/09 12:01:06;;;;;;;;;;;;;;;23.77;27.38;97844.91;5020740;28;19920;-82
2023/03/09 12:03:32;;;;;;;;;;;;;;;23.70;27.23;97836.97;5019661;28;19916;-84
2023/03/09 12:05:59;;;;;;;;;;;;;;;23.58;27.33;97831.59;5019213;28;20031;-82
2023/03/09 12:08:31;;;;;;;;;;;;;;;23.47;26.93;97835.00;5018395;28;19917;-81
2023/03/09 12:11:00;;;;;;;;;;;;;;;23.29;27.16;97827.81;5053163;28;19967;-80
2023/03/09 12:13:30;;;;;;;;;;;;;;;23.19;26.77;97825.66;5035686;28;19916;-83
2023/03/09 12:16:02;;;;;;;;;;;;;;;22.76;26.52;97824.59;5019769;28;19948;-83
2023/03/09 12:18:28;;;;;;;;;;;;;;;22.62;27.01;97817.75;5035508;28;19917;-82
2023/03/09 12:20:54;;;;;;;;;;;;;;;22.61;27.01;97815.31;5019199;28;20433;-81
2023/03/09 12:23:35;;;;;;;;;;;;;;;22.46;26.82;97815.66;5018772;28;19916;-81
2023/03/09 12:26:20;;;;;;;;;;;;;;;22.27;26.48;97806.75;5035478;28;19923;-82
2023/03/09 12:28:58;;;;;;;;;;;;;;;22.18;26.96;97800.88;5034444;28;20307;-81
2023/03/09 12:31:27;;;;;;;;;;;;;;;22.17;26.69;97800.06;5052732;28;19917;-81
2023/03/09 12:34:02;;;;;;;;;;;;;;;22.16;26.80;97797.63;5018935;28;20342;-84
2023/03/09 12:36:29;;;;;;;;;;;;;;;22.01;27.22;97800.56;5035293;28;19955;-80
2023/03/09 12:39:13;;;;;;;;;;;;;;;21.73;26.61;97795.59;5036245;28;19917;-82
2023/03/09 12:41:57;;;;;;;;;;;;;;;21.53;27.00;97796.50;5035288;28;19921;-81
2023/03/09 12:44:41;;;;;;;;;;;;;;;21.47;26.54;97789.34;5052596;28;19928;-80
2023/03/09 12:47:13;;;;;;;;;;;;;;;21.40;27.40;97802.66;5052713;28;19963;-82